createdAt,value
2023-03-02T00:01:26.407Z,10.45
2023-03-02T00:03:53.784Z,7.63
2023-03-02T00:06:21.306Z,8.68
2023-03-02T00:08:50.024Z,7.35
2023-03-02T00:11:18.164Z,10.52
2023-03-02T00:13:44.771Z,7.85
2023-03-02T00:16:11.495Z,8.55
2023-03-02T00:18:38.130Z,10.65
2023-03-02T00:21:05.406Z,8.85
2023-03-02T00:23:32.138Z,10.95
2023-03-02T00:26:00.849Z,8.07
2023-03-02T00:28:30.917Z,9.25
2023-03-02T00:31:00.487Z,10.82
2023-03-02T00:33:27.418Z,10.07
2023-03-02T00:35:53.936Z,9.13
2023-03-02T00:38:22.470Z,8.57
2023-03-02T00:40:51.906Z,8.70
2023-03-02T00:43:18.467Z,7.85
2023-03-02T00:45:45.756Z,7.85
2023-03-02T00:48:12.551Z,12.98
2023-03-02T00:50:41.136Z,13.00
2023-03-02T00:53:10.767Z,7.85
2023-03-02T00:55:38.396Z,7.93
2023-03-02T00:58:06.579Z,10.38
2023-03-02T01:00:35.607Z,7.55
2023-03-02T01:03:06.151Z,7.80
2023-03-02T01:05:37.932Z,8.80
2023-03-02T01:08:07.165Z,8.45
2023-03-02T01:10:45.924Z,9.77
2023-03-02T01:13:12.891Z,8.68
2023-03-02T01:15:39.730Z,8.45
2023-03-02T01:18:10.673Z,12.20
2023-03-02T01:20:38.601Z,8.95
2023-03-02T01:23:07.632Z,7.10
2023-03-02T01:25:34.465Z,10.57
2023-03-02T01:28:01.120Z,7.70
2023-03-02T01:30:27.698Z,6.97
2023-03-02T01:32:54.411Z,10.25
2023-03-02T01:35:22.270Z,7.70
2023-03-02T01:37:48.786Z,7.32
2023-03-02T01:40:19.924Z,7.00
2023-03-02T01:42:52.545Z,8.10
2023-03-02T01:45:52.296Z,8.15
2023-03-02T01:48:51.335Z,9.80
2023-03-02T01:51:30.912Z,7.93
2023-03-02T01:54:04.323Z,6.97
2023-03-02T01:56:34.898Z,8.75
2023-03-02T01:59:12.361Z,7.07
2023-03-02T02:01:42.831Z,10.52
2023-03-02T02:04:09.958Z,6.50
2023-03-02T02:09:23.539Z,7.10
2023-03-02T02:11:50.158Z,6.63
2023-03-02T02:14:16.840Z,5.68
2023-03-02T02:16:48.155Z,5.88
2023-03-02T02:19:36.732Z,8.07
2023-03-02T02:22:03.383Z,9.63
2023-03-02T02:24:59.464Z,7.15
2023-03-02T02:27:31.731Z,9.00
2023-03-02T02:29:58.515Z,6.20
2023-03-02T02:32:34.456Z,11.43
2023-03-02T02:35:14.576Z,7.10
2023-03-02T02:37:46.514Z,11.35
2023-03-02T02:40:23.209Z,6.63
2023-03-02T02:42:52.965Z,11.10
2023-03-02T02:45:26.580Z,10.13
2023-03-02T02:47:59.748Z,10.07
2023-03-02T02:50:33.866Z,6.43
2023-03-02T02:53:07.619Z,8.95
2023-03-02T02:55:38.912Z,8.63
2023-03-02T02:58:33.685Z,6.28
2023-03-02T03:01:01.625Z,9.48
2023-03-02T03:03:37.568Z,11.00
2023-03-02T03:06:17.169Z,9.23
2023-03-02T03:11:23.211Z,9.30
2023-03-02T03:14:16.117Z,6.22
2023-03-02T03:16:48.723Z,7.00
2023-03-02T03:19:21.246Z,10.07
2023-03-02T03:21:51.293Z,10.40
2023-03-02T03:24:19.173Z,9.75
2023-03-02T03:26:47.789Z,10.38
2023-03-02T03:29:19.106Z,13.57
2023-03-02T03:31:47.290Z,9.80
2023-03-02T03:34:14.315Z,10.48
2023-03-02T03:39:12.362Z,12.40
2023-03-02T03:41:40.469Z,10.20
2023-03-02T03:44:11.188Z,12.88
2023-03-02T03:46:42.804Z,12.13
2023-03-02T03:49:12.000Z,9.43
2023-03-02T03:54:08.763Z,9.35
2023-03-02T03:56:41.751Z,9.95
2023-03-02T03:59:20.886Z,14.23
2023-03-02T04:01:59.218Z,12.82
2023-03-02T04:04:36.864Z,11.38
2023-03-02T04:07:08.893Z,13.23
2023-03-02T04:09:37.982Z,11.85
2023-03-02T04:12:08.662Z,13.35
2023-03-02T04:14:36.481Z,9.70
2023-03-02T04:17:06.181Z,9.50
2023-03-02T04:19:37.321Z,12.13
2023-03-02T04:22:05.010Z,12.88
2023-03-02T04:24:33.002Z,10.60
2023-03-02T04:27:02.487Z,9.30
2023-03-02T04:29:32.257Z,9.10
2023-03-02T04:32:02.196Z,9.50
2023-03-02T04:34:31.146Z,11.00
2023-03-02T04:36:57.768Z,12.18
2023-03-02T04:39:26.625Z,9.68
2023-03-02T04:41:53.578Z,11.60
2023-03-02T04:44:23.926Z,13.18
2023-03-02T04:46:51.422Z,10.85
2023-03-02T04:49:19.661Z,9.25
2023-03-02T04:51:48.219Z,9.30
2023-03-02T04:54:24.767Z,10.35
2023-03-02T04:56:52.994Z,8.45
2023-03-02T04:59:26.320Z,7.82
2023-03-02T05:01:55.573Z,6.75
2023-03-02T05:04:28.017Z,11.35
2023-03-02T05:06:54.858Z,9.63
2023-03-02T05:09:27.093Z,11.73
2023-03-02T05:11:58.964Z,10.15
2023-03-02T05:14:26.828Z,9.60
2023-03-02T05:16:56.753Z,9.13
2023-03-02T05:19:30.385Z,8.23
2023-03-02T05:21:57.097Z,9.25
2023-03-02T05:24:23.722Z,8.18
2023-03-02T05:26:50.589Z,9.88
2023-03-02T05:29:19.507Z,9.85
2023-03-02T05:31:47.550Z,11.48
2023-03-02T05:34:17.567Z,11.40
2023-03-02T05:36:45.698Z,10.00
2023-03-02T05:39:15.225Z,8.85
2023-03-02T05:41:42.502Z,10.57
2023-03-02T05:46:37.639Z,7.03
2023-03-02T05:49:04.572Z,10.93
2023-03-02T05:53:57.729Z,11.15
2023-03-02T05:56:24.414Z,8.77
2023-03-02T05:58:51.158Z,10.30
2023-03-02T06:01:17.713Z,10.20
2023-03-02T06:03:44.405Z,7.65
2023-03-02T06:06:14.968Z,8.18
2023-03-02T06:08:43.202Z,10.32
2023-03-02T06:11:10.672Z,10.38
2023-03-02T06:13:37.623Z,9.82
2023-03-02T06:16:04.790Z,10.18
2023-03-02T06:18:31.735Z,12.95
2023-03-02T06:20:58.929Z,11.13
2023-03-02T06:23:27.422Z,10.65
2023-03-02T06:25:54.477Z,8.15
2023-03-02T06:28:21.866Z,8.88
2023-03-02T06:30:49.680Z,9.57
2023-03-02T06:33:21.233Z,8.38
2023-03-02T06:35:48.091Z,8.75
2023-03-02T06:38:15.268Z,7.10
2023-03-02T06:40:43.557Z,7.50
2023-03-02T06:43:12.855Z,7.85
2023-03-02T06:45:39.846Z,9.10
2023-03-02T06:48:07.728Z,8.77
2023-03-02T06:50:36.905Z,7.68
2023-03-02T06:53:03.441Z,7.68
2023-03-02T06:55:33.212Z,7.25
2023-03-02T06:58:04.588Z,8.07
2023-03-02T07:00:32.058Z,8.15
2023-03-02T07:02:58.813Z,7.70
2023-03-02T07:05:26.595Z,8.65
2023-03-02T07:07:53.401Z,7.68
2023-03-02T07:10:20.343Z,6.60
2023-03-02T07:12:47.644Z,5.70
2023-03-02T07:15:14.862Z,5.80
2023-03-02T07:17:43.488Z,6.90
2023-03-02T07:20:14.494Z,7.55
2023-03-02T07:22:42.707Z,6.78
2023-03-02T07:25:11.437Z,7.00
2023-03-02T07:27:41.730Z,8.80
2023-03-02T07:30:09.396Z,7.15
2023-03-02T07:32:37.466Z,6.55
2023-03-02T07:35:06.563Z,6.60
2023-03-02T07:37:33.186Z,6.43
2023-03-02T07:40:01.948Z,6.15
2023-03-02T07:42:28.533Z,5.90
2023-03-02T07:44:57.820Z,6.88
2023-03-02T07:47:26.987Z,6.63
2023-03-02T07:49:53.567Z,7.50
2023-03-02T07:52:20.065Z,6.20
2023-03-02T07:54:49.159Z,5.55
2023-03-02T07:57:16.435Z,6.38
2023-03-02T07:59:43.771Z,6.38
2023-03-02T08:02:20.246Z,7.88
2023-03-02T08:04:47.274Z,5.88
2023-03-02T08:07:13.945Z,6.15
2023-03-02T08:09:40.576Z,7.60
2023-03-02T08:12:09.246Z,7.13
2023-03-02T08:14:36.874Z,7.03
2023-03-02T08:17:08.252Z,6.55
2023-03-02T08:19:34.937Z,5.93
2023-03-02T08:22:02.357Z,7.75
2023-03-02T08:24:28.846Z,7.70
2023-03-02T08:26:55.919Z,7.72
2023-03-02T08:31:56.618Z,6.18
2023-03-02T08:34:23.413Z,5.47
2023-03-02T08:36:49.991Z,5.78
2023-03-02T08:39:16.543Z,6.93
2023-03-02T08:41:43.877Z,7.20
2023-03-02T08:44:10.828Z,6.20
2023-03-02T08:49:03.848Z,5.22
2023-03-02T08:51:31.440Z,6.97
2023-03-02T08:53:58.150Z,7.72
2023-03-02T08:56:24.747Z,7.45
2023-03-02T08:58:53.848Z,5.68
2023-03-02T09:01:23.673Z,6.15
2023-03-02T09:03:54.966Z,7.10
2023-03-02T09:06:24.999Z,5.95
2023-03-02T09:08:51.979Z,7.40
2023-03-02T09:11:19.313Z,6.70
2023-03-02T09:13:46.668Z,6.18
2023-03-02T09:16:13.898Z,5.88
2023-03-02T09:18:41.136Z,5.70
2023-03-02T09:21:07.858Z,5.20
2023-03-02T09:23:36.584Z,5.03
2023-03-02T09:26:04.523Z,5.00
2023-03-02T09:28:33.769Z,5.40
2023-03-02T09:31:03.945Z,4.47
2023-03-02T09:33:32.271Z,4.90
2023-03-02T09:35:59.317Z,4.55
2023-03-02T09:41:20.194Z,4.82
2023-03-02T09:44:00.153Z,4.50
2023-03-02T09:46:59.940Z,5.88
2023-03-02T09:49:53.729Z,6.10
2023-03-02T09:52:37.200Z,5.00
2023-03-02T09:55:19.902Z,5.60
2023-03-02T09:57:47.184Z,6.35
2023-03-02T10:00:28.091Z,5.70
2023-03-02T10:03:14.825Z,4.88
2023-03-02T10:05:54.864Z,5.43
2023-03-02T10:08:31.355Z,4.00
2023-03-02T10:11:18.127Z,4.50
2023-03-02T10:13:50.989Z,6.57
2023-03-02T10:16:41.335Z,5.82
2023-03-02T10:19:12.198Z,6.10
2023-03-02T10:22:09.900Z,5.40
2023-03-02T10:24:46.769Z,5.60
2023-03-02T10:27:28.312Z,6.20
2023-03-02T10:30:22.846Z,5.47
2023-03-02T10:32:52.934Z,5.00
2023-03-02T10:35:28.725Z,4.82
2023-03-02T10:38:07.190Z,4.28
2023-03-02T10:40:40.325Z,5.20
2023-03-02T10:43:30.535Z,5.32
2023-03-02T10:46:03.086Z,5.82
2023-03-02T10:48:40.885Z,4.40
2023-03-02T10:51:23.920Z,5.57
2023-03-02T10:53:51.105Z,5.93
2023-03-02T10:56:21.670Z,5.63
2023-03-02T10:58:49.331Z,7.32
2023-03-02T11:01:21.484Z,5.38
2023-03-02T11:04:16.325Z,7.03
2023-03-02T11:06:44.122Z,6.53
2023-03-02T11:09:16.884Z,5.25
2023-03-02T11:11:56.572Z,5.55
2023-03-02T11:14:23.934Z,6.07
2023-03-02T11:16:54.891Z,5.75
2023-03-02T11:19:36.910Z,5.32
2023-03-02T11:22:34.224Z,5.43
2023-03-02T11:25:06.655Z,6.43
2023-03-02T11:27:39.290Z,9.73
2023-03-02T11:30:16.110Z,8.45
2023-03-02T11:33:21.793Z,10.98
2023-03-02T11:35:55.925Z,8.65
2023-03-02T11:38:34.122Z,8.43
2023-03-02T11:41:10.630Z,8.48
2023-03-02T11:43:37.173Z,6.47
2023-03-02T11:46:13.830Z,7.97
2023-03-02T11:48:49.342Z,9.23
2023-03-02T11:51:23.723Z,9.18
2023-03-02T11:54:20.326Z,8.32
2023-03-02T11:56:47.092Z,10.05
2023-03-02T11:59:20.330Z,22.10
2023-03-02T12:01:52.739Z,12.25
2023-03-02T12:04:32.751Z,13.80
2023-03-02T12:07:23.385Z,7.80
2023-03-02T12:10:08.943Z,6.35
2023-03-02T12:12:48.189Z,5.80
2023-03-02T12:15:39.010Z,5.93
2023-03-02T12:18:21.203Z,4.55
2023-03-02T12:21:02.918Z,4.97
2023-03-02T12:23:31.582Z,5.13
2023-03-02T12:26:07.868Z,5.43
2023-03-02T12:28:39.638Z,5.47
2023-03-02T12:31:12.644Z,4.97
2023-03-02T12:33:49.168Z,4.35
2023-03-02T12:36:37.678Z,4.85
2023-03-02T12:42:33.384Z,4.70
2023-03-02T12:45:22.348Z,4.07
2023-03-02T12:47:56.985Z,5.60
2023-03-02T12:50:32.450Z,5.10
2023-03-02T12:53:07.524Z,4.60
2023-03-02T12:55:34.888Z,4.38
2023-03-02T12:58:02.310Z,5.20
2023-03-02T13:00:34.659Z,5.60
2023-03-02T13:03:03.072Z,4.53
2023-03-02T13:08:30.981Z,4.63
2023-03-02T13:11:02.192Z,5.82
2023-03-02T13:13:43.039Z,5.68
2023-03-02T13:16:32.728Z,4.88
2023-03-02T13:19:03.698Z,5.55
2023-03-02T13:21:37.655Z,5.80
2023-03-02T13:24:25.990Z,6.10
2023-03-02T13:27:20.096Z,5.80
2023-03-02T13:29:49.612Z,5.22
2023-03-02T13:32:29.006Z,5.45
2023-03-02T13:34:59.017Z,6.28
2023-03-02T13:37:32.172Z,6.53
2023-03-02T13:40:05.577Z,5.50
2023-03-02T13:42:38.452Z,6.47
2023-03-02T13:45:22.155Z,6.20
2023-03-02T13:47:50.122Z,6.05
2023-03-02T13:50:20.051Z,5.95
2023-03-02T13:52:50.573Z,5.50
2023-03-02T13:55:20.118Z,6.90
2023-03-02T13:57:49.838Z,6.53
2023-03-02T14:00:30.301Z,6.32
2023-03-02T14:02:57.152Z,6.85
2023-03-02T14:05:33.665Z,8.55
2023-03-02T14:08:03.006Z,8.07
2023-03-02T14:10:36.595Z,6.47
2023-03-02T14:13:12.337Z,6.53
2023-03-02T14:15:42.768Z,7.28
2023-03-02T14:18:33.061Z,7.85
2023-03-02T14:21:01.932Z,8.98
2023-03-02T14:23:28.738Z,9.13
2023-03-02T14:25:56.858Z,7.57
2023-03-02T14:28:31.469Z,7.22
2023-03-02T14:31:01.593Z,6.95
2023-03-02T14:33:29.784Z,8.65
2023-03-02T14:36:00.641Z,9.75
2023-03-02T14:38:28.076Z,9.68
2023-03-02T14:40:56.178Z,9.05
2023-03-02T14:43:27.249Z,9.20
2023-03-02T14:45:57.943Z,9.60
2023-03-02T14:48:27.462Z,8.80
2023-03-02T14:50:54.126Z,8.52
2023-03-02T14:53:30.444Z,8.88
2023-03-02T14:55:57.739Z,9.45
2023-03-02T14:58:33.208Z,10.07
2023-03-02T15:01:08.997Z,8.80
2023-03-02T15:03:37.400Z,8.68
2023-03-02T15:06:07.614Z,8.10
2023-03-02T15:08:35.082Z,8.57
2023-03-02T15:11:03.756Z,8.13
2023-03-02T15:13:32.075Z,8.98
2023-03-02T15:16:03.458Z,7.75
2023-03-02T15:18:31.285Z,10.23
2023-03-02T15:20:58.509Z,9.63
2023-03-02T15:23:28.103Z,10.52
2023-03-02T15:26:03.457Z,8.40
2023-03-02T15:28:31.451Z,8.75
2023-03-02T15:31:14.809Z,8.50
2023-03-02T15:33:45.846Z,7.68
2023-03-02T15:36:14.700Z,7.93
2023-03-02T15:38:43.358Z,9.20
2023-03-02T15:41:15.539Z,6.97
2023-03-02T15:43:42.293Z,7.00
2023-03-02T15:46:12.593Z,9.93
2023-03-02T15:48:41.541Z,8.45
2023-03-02T15:51:08.617Z,8.52
2023-03-02T15:56:12.135Z,7.70
2023-03-02T15:58:38.714Z,7.20
2023-03-02T16:01:10.385Z,7.20
2023-03-02T16:03:37.622Z,7.32
2023-03-02T16:06:07.470Z,8.90
2023-03-02T16:08:35.634Z,8.93
2023-03-02T16:11:09.031Z,8.70
2023-03-02T16:13:41.062Z,8.27
2023-03-02T16:16:08.267Z,8.88
2023-03-02T16:18:35.673Z,8.70
2023-03-02T16:21:03.507Z,8.63
2023-03-02T16:23:30.198Z,9.30
2023-03-02T16:26:10.189Z,8.30
2023-03-02T16:28:47.972Z,8.07
2023-03-02T16:31:20.922Z,8.50
2023-03-02T16:33:53.382Z,8.43
2023-03-02T16:36:21.216Z,8.38
2023-03-02T16:38:49.917Z,6.65
2023-03-02T16:41:22.034Z,7.45
2023-03-02T16:43:56.224Z,6.75
2023-03-02T16:46:25.589Z,6.88
2023-03-02T16:48:56.796Z,6.47
2023-03-02T16:51:27.269Z,6.32
2023-03-02T16:54:02.528Z,6.32
2023-03-02T16:56:31.405Z,6.30
2023-03-02T16:59:00.101Z,8.48
2023-03-02T17:01:32.086Z,7.03
2023-03-02T17:03:58.749Z,7.70
2023-03-02T17:06:31.704Z,8.57
2023-03-02T17:08:59.756Z,6.47
2023-03-02T17:11:27.870Z,7.50
2023-03-02T17:13:56.352Z,7.68
2023-03-02T17:16:23.178Z,7.97
2023-03-02T17:18:49.994Z,7.97
2023-03-02T17:21:18.429Z,8.55
2023-03-02T17:23:48.226Z,6.80
2023-03-02T17:26:16.108Z,7.75
2023-03-02T17:28:42.667Z,7.32
2023-03-02T17:31:10.389Z,8.32
2023-03-02T17:33:38.277Z,7.50
2023-03-02T17:36:13.911Z,9.50
2023-03-02T17:38:48.461Z,8.80
2023-03-02T17:41:18.379Z,9.40
2023-03-02T17:43:53.562Z,10.38
2023-03-02T17:46:28.808Z,8.40
2023-03-02T17:49:01.887Z,9.05
2023-03-02T17:51:32.985Z,9.55
2023-03-02T17:54:00.977Z,8.02
2023-03-02T17:56:28.563Z,9.65
2023-03-02T17:59:00.416Z,8.23
2023-03-02T18:01:28.864Z,7.40
2023-03-02T18:03:56.503Z,8.88
2023-03-02T18:06:23.149Z,10.40
2023-03-02T18:08:52.561Z,11.50
2023-03-02T18:11:21.925Z,12.15
2023-03-02T18:13:54.887Z,13.45
2023-03-02T18:16:29.239Z,13.20
2023-03-02T18:18:57.996Z,13.50
2023-03-02T18:21:28.497Z,12.55
2023-03-02T18:23:55.953Z,10.82
2023-03-02T18:26:22.746Z,10.30
2023-03-02T18:28:49.775Z,10.00
2023-03-02T18:31:18.176Z,9.15
2023-03-02T18:33:47.446Z,10.38
2023-03-02T18:36:15.799Z,10.07
2023-03-02T18:38:44.858Z,9.70
2023-03-02T18:41:14.796Z,8.20
2023-03-02T18:43:43.275Z,9.95
2023-03-02T18:46:22.709Z,11.20
2023-03-02T18:48:59.769Z,11.48
2023-03-02T18:51:32.133Z,11.80
2023-03-02T18:53:58.679Z,11.80
2023-03-02T18:56:28.178Z,12.30
2023-03-02T18:58:55.763Z,10.85
2023-03-02T19:01:22.557Z,11.35
2023-03-02T19:03:57.559Z,11.77
2023-03-02T19:06:27.671Z,12.75
2023-03-02T19:08:55.135Z,12.88
2023-03-02T19:11:22.140Z,11.23
2023-03-02T19:13:48.756Z,10.52
2023-03-02T19:16:18.385Z,11.23
2023-03-02T19:18:48.807Z,11.32
2023-03-02T19:21:17.086Z,10.32
2023-03-02T19:23:46.539Z,11.15
2023-03-02T19:26:16.061Z,10.95
2023-03-02T19:28:47.592Z,10.80
2023-03-02T19:31:15.258Z,12.07
2023-03-02T19:33:45.698Z,11.63
2023-03-02T19:36:13.545Z,10.68
2023-03-02T19:38:45.839Z,12.43
2023-03-02T19:41:21.010Z,10.77
2023-03-02T19:43:48.998Z,12.07
2023-03-02T19:46:19.709Z,11.80
2023-03-02T19:48:50.168Z,11.88
2023-03-02T19:51:17.060Z,10.55
2023-03-02T19:53:48.785Z,9.23
2023-03-02T19:56:17.643Z,8.48
2023-03-02T19:58:49.829Z,8.50
2023-03-02T20:01:21.732Z,8.70
2023-03-02T20:03:50.193Z,8.45
2023-03-02T20:06:17.585Z,9.20
2023-03-02T20:08:48.538Z,9.95
2023-03-02T20:11:16.471Z,10.63
2023-03-02T20:13:43.305Z,10.40
2023-03-02T20:16:16.172Z,11.23
2023-03-02T20:18:46.573Z,10.60
2023-03-02T20:21:13.246Z,8.05
2023-03-02T20:23:40.008Z,7.70
2023-03-02T20:26:10.722Z,7.60
2023-03-02T20:28:37.320Z,9.05
2023-03-02T20:31:11.968Z,8.68
2023-03-02T20:33:42.598Z,9.25
2023-03-02T20:36:09.624Z,9.30
2023-03-02T20:38:57.483Z,9.00
2023-03-02T20:41:29.950Z,10.05
2023-03-02T20:43:57.232Z,9.40
2023-03-02T20:48:57.277Z,7.57
2023-03-02T20:53:53.150Z,9.10
2023-03-02T20:56:22.470Z,9.63
2023-03-02T20:58:51.620Z,9.40
2023-03-02T21:01:20.124Z,10.95
2023-03-02T21:03:47.552Z,8.88
2023-03-02T21:06:18.418Z,8.98
2023-03-02T21:08:48.954Z,8.88
2023-03-02T21:11:28.047Z,8.38
2023-03-02T21:13:56.133Z,9.32
2023-03-02T21:16:38.120Z,8.30
2023-03-02T21:19:11.001Z,8.13
2023-03-02T21:21:42.060Z,9.13
2023-03-02T21:24:12.051Z,7.10
2023-03-02T21:26:41.894Z,8.32
2023-03-02T21:29:10.171Z,8.63
2023-03-02T21:31:37.085Z,7.60
2023-03-02T21:34:05.010Z,7.70
2023-03-02T21:36:34.987Z,8.25
2023-03-02T21:39:04.287Z,7.70
2023-03-02T21:41:36.751Z,9.07
2023-03-02T21:44:07.226Z,9.32
2023-03-02T21:46:36.569Z,9.15
2023-03-02T21:49:03.599Z,8.15
2023-03-02T21:51:30.841Z,8.27
2023-03-02T21:53:58.049Z,7.40
2023-03-02T21:56:27.082Z,7.80
2023-03-02T21:58:59.584Z,7.78
2023-03-02T22:01:30.041Z,7.55
2023-03-02T22:03:57.190Z,7.88
2023-03-02T22:08:56.952Z,6.85
2023-03-02T22:11:36.689Z,6.95
2023-03-02T22:14:14.004Z,7.45
2023-03-02T22:16:47.995Z,7.70
2023-03-02T22:19:28.486Z,7.97
2023-03-02T22:22:00.396Z,8.82
2023-03-02T22:24:30.444Z,9.98
2023-03-02T22:27:23.180Z,10.75
2023-03-02T22:29:52.224Z,9.80
2023-03-02T22:32:36.716Z,9.43
2023-03-02T22:35:25.086Z,9.20
2023-03-02T22:38:00.858Z,8.88
2023-03-02T22:40:27.728Z,8.70
2023-03-02T22:43:07.535Z,10.23
2023-03-02T22:45:35.288Z,9.38
2023-03-02T22:48:12.920Z,9.05
2023-03-02T22:50:39.678Z,8.02
2023-03-02T22:53:21.921Z,7.95
2023-03-02T22:55:48.705Z,8.90
2023-03-02T22:58:27.618Z,9.27
2023-03-02T23:00:54.978Z,9.40
2023-03-02T23:03:36.882Z,9.55
2023-03-02T23:06:19.705Z,10.15
2023-03-02T23:08:49.563Z,9.88
2023-03-02T23:11:18.948Z,9.50
2023-03-02T23:13:46.636Z,10.18
2023-03-02T23:16:15.809Z,10.57
2023-03-02T23:18:43.666Z,10.60
2023-03-02T23:21:19.876Z,10.80
2023-03-02T23:23:48.162Z,10.32
2023-03-02T23:26:19.478Z,11.02
2023-03-02T23:28:48.358Z,11.88
2023-03-02T23:31:16.074Z,9.18
2023-03-02T23:33:42.607Z,10.25
2023-03-02T23:36:09.854Z,10.40
2023-03-02T23:38:37.008Z,9.68
2023-03-02T23:41:03.785Z,10.35
2023-03-02T23:43:32.416Z,10.30
2023-03-02T23:46:01.141Z,10.45
2023-03-02T23:48:29.150Z,10.13
2023-03-02T23:50:56.858Z,9.70
2023-03-02T23:53:23.563Z,10.27
2023-03-02T23:55:52.561Z,10.82
2023-03-02T23:58:19.442Z,9.40
